CheckWX is a tool to help pilots better visualize weather data.  It is not intended as a substitute for an official pre-flight weather briefing.

10:38:28 UTC

PACV METAR
Merle K (Mudhole) Smith Airport
Cordova, Alaska, USA
Current

45 mins ago

PACV 170953Z 00000KT 10SM BKN075 06/04 A2967 RMK AO2 SLP048 T00560044
Observed
Sep-17 @ 09:53 UTC
Visibility
10 SM
Flight Rules
VFR
Cloud Levels
  • Broken at 7,500' AGL
Temperature
C / 43°F
Dewpoint
C / 39°F
Humidity
87%
Altimeter
29.67" Hg
Pressure
1004.72 hPa
Previous

2 hours ago

PACV 170853Z 00000KT 10SM CLR 06/05 A2964 RMK AO2 SLP039 T00560050 401780056 51008
Observed
Sep-17 @ 08:53 UTC
Visibility
10 SM
Flight Rules
VFR
Cloud Levels
  • Clear skies
Temperature
C / 43°F
Dewpoint
C / 41°F
Humidity
93%
Altimeter
29.64" Hg
Pressure
1003.72 hPa
Previous

3 hours ago

PACV 170753Z 31003KT 10SM SCT046 07/06 A2964 RMK AO2 SLP037 T00720061
Observed
Sep-17 @ 07:53 UTC
Wind
  • 310° at 3 KTS
Visibility
10 SM
Flight Rules
VFR
Cloud Levels
  • Scattered at 4,600' AGL
Temperature
C / 45°F
Dewpoint
C / 43°F
Humidity
93%
Altimeter
29.64" Hg
Pressure
1003.72 hPa